Terminal Aerodrome Forecast
Issued by NWS

Home | Current Version | Previous Version | Graphics & Text | Print | Product List | Glossary On
Versions: 1 2 3 4 5 6 7 8 9 10 11 12 13 14 15
000
FTUS45 KGGW 271700
TAFSDY
TAF
KSDY 271725Z 2718/2818 31008KT P6SM BKN020 OVC035
     FM272000 32007KT P6SM FEW020 BKN050
     FM272200 VRB03KT P6SM FEW050
      AMD LTD TO CLD VIS AND WIND=

USA.gov is the U.S. government's official web portal to all federal, state and local government web resources and services.